createdAt,value
2019-06-08T00:02:23.002Z,86.45
2019-06-08T00:04:55.244Z,85.45
2019-06-08T00:07:27.244Z,85.94
2019-06-08T00:09:59.311Z,85.95
2019-06-08T00:12:31.318Z,85.89
2019-06-08T00:15:03.764Z,85.63
2019-06-08T00:17:38.751Z,86.07
2019-06-08T00:20:09.739Z,85.83
2019-06-08T00:22:41.860Z,85.99
2019-06-08T00:25:15.806Z,86.21
2019-06-08T00:27:48.017Z,86.13
2019-06-08T00:30:20.259Z,86.42
2019-06-08T00:32:52.288Z,86.85
2019-06-08T00:35:24.948Z,86.30
2019-06-08T00:38:00.127Z,86.99
2019-06-08T00:40:32.173Z,86.79
2019-06-08T00:43:04.082Z,86.93
2019-06-08T00:45:36.075Z,86.37
2019-06-08T00:48:08.068Z,86.26
2019-06-08T00:50:39.956Z,86.08
2019-06-08T00:53:11.957Z,86.60
2019-06-08T00:55:43.937Z,86.88
2019-06-08T00:58:15.895Z,87.69
2019-06-08T01:00:49.099Z,87.45
2019-06-08T01:03:21.653Z,87.65
2019-06-08T01:05:53.763Z,87.37
2019-06-08T01:08:25.731Z,87.02
2019-06-08T01:10:57.793Z,86.68
2019-06-08T01:13:29.771Z,86.83
2019-06-08T01:16:02.273Z,87.55
2019-06-08T01:18:34.311Z,87.29
2019-06-08T01:21:06.541Z,86.69
2019-06-08T01:23:38.428Z,86.50
2019-06-08T01:26:10.335Z,86.51
2019-06-08T01:28:42.226Z,87.07
2019-06-08T01:31:14.145Z,87.25
2019-06-08T01:33:46.188Z,87.48
2019-06-08T01:36:18.273Z,86.76
2019-06-08T01:38:50.301Z,87.30
2019-06-08T01:41:23.239Z,87.40
2019-06-08T01:43:55.400Z,86.72
2019-06-08T01:46:28.234Z,87.78
2019-06-08T01:49:00.269Z,86.80
2019-06-08T01:51:32.782Z,87.33
2019-06-08T01:54:05.762Z,87.32
2019-06-08T01:56:37.817Z,88.08
2019-06-08T01:59:09.787Z,87.38
2019-06-08T02:01:41.796Z,87.35
2019-06-08T02:04:13.764Z,87.20
2019-06-08T02:06:45.878Z,86.86
2019-06-08T02:09:17.797Z,87.05
2019-06-08T02:11:49.780Z,86.66
2019-06-08T02:14:21.745Z,87.34
2019-06-08T02:16:53.837Z,87.52
2019-06-08T02:19:26.542Z,87.84
2019-06-08T02:21:58.570Z,87.52
2019-06-08T02:25:03.792Z,87.94
2019-06-08T02:27:48.901Z,87.77
2019-06-08T02:30:22.711Z,87.87
2019-06-08T02:33:28.329Z,87.49
2019-06-08T02:36:13.444Z,87.47
2019-06-08T02:38:47.088Z,87.02
2019-06-08T02:41:51.417Z,88.52
2019-06-08T02:44:25.034Z,88.26
2019-06-08T02:46:58.587Z,87.78
2019-06-08T02:49:33.221Z,87.74
2019-06-08T02:52:07.255Z,87.39
2019-06-08T02:54:41.652Z,87.51
2019-06-08T02:57:15.559Z,87.60
2019-06-08T02:59:50.676Z,88.04
2019-06-08T03:02:29.638Z,87.60
2019-06-08T03:05:04.751Z,88.34
2019-06-08T03:07:42.341Z,88.15
2019-06-08T03:10:24.934Z,88.73
2019-06-08T03:13:12.069Z,89.04
2019-06-08T03:16:16.756Z,89.72
2019-06-08T03:18:50.333Z,89.37
2019-06-08T03:21:23.976Z,90.01
2019-06-08T03:24:09.342Z,88.87
2019-06-08T03:26:44.312Z,89.53
2019-06-08T03:29:17.865Z,88.49
2019-06-08T03:31:55.534Z,88.32
2019-06-08T03:34:23.796Z,87.81
2019-06-08T03:36:57.314Z,88.39
2019-06-08T03:39:29.436Z,88.48
2019-06-08T03:42:01.415Z,88.89
2019-06-08T03:44:34.237Z,89.78
2019-06-08T03:47:06.278Z,90.61
2019-06-08T03:49:50.709Z,91.03
2019-06-08T03:52:11.773Z,90.81
2019-06-08T03:54:45.236Z,90.14
2019-06-08T03:57:17.360Z,89.19
2019-06-08T03:59:49.454Z,89.06
2019-06-08T04:02:21.685Z,88.47
2019-06-08T04:04:54.064Z,88.50
2019-06-08T04:07:26.028Z,88.40
2019-06-08T04:09:59.186Z,88.99
2019-06-08T04:12:31.088Z,87.82
2019-06-08T04:15:03.695Z,88.78
2019-06-08T04:17:35.723Z,87.81
2019-06-08T04:20:11.641Z,87.54
2019-06-08T04:22:47.094Z,87.49
2019-06-08T04:25:20.460Z,86.87
2019-06-08T04:27:52.500Z,85.76
2019-06-08T04:30:24.593Z,85.58
2019-06-08T04:32:56.637Z,85.66
2019-06-08T04:35:28.683Z,84.93
2019-06-08T04:38:00.823Z,85.19
2019-06-08T04:40:32.954Z,84.76
2019-06-08T04:43:05.479Z,84.15
2019-06-08T04:45:40.920Z,84.71
2019-06-08T04:48:12.513Z,84.44
2019-06-08T04:50:45.420Z,84.72
2019-06-08T04:53:18.189Z,83.46
2019-06-08T04:55:50.172Z,83.82
2019-06-08T04:58:22.305Z,85.06
2019-06-08T05:00:54.391Z,84.06
2019-06-08T05:03:26.493Z,85.45
2019-06-08T05:05:59.571Z,84.47
2019-06-08T05:08:32.025Z,84.09
2019-06-08T05:11:04.393Z,84.34
2019-06-08T05:13:36.768Z,83.02
2019-06-08T05:16:08.800Z,83.24
2019-06-08T05:18:41.354Z,82.45
2019-06-08T05:21:13.681Z,84.16
2019-06-08T05:23:47.877Z,82.54
2019-06-08T05:26:20.713Z,83.27
2019-06-08T05:28:53.182Z,82.39
2019-06-08T05:31:25.400Z,81.77
2019-06-08T05:33:57.983Z,82.12
2019-06-08T05:36:30.381Z,81.21
2019-06-08T05:39:02.835Z,81.38
2019-06-08T05:41:36.152Z,79.96
2019-06-08T05:44:08.843Z,80.54
2019-06-08T05:46:41.756Z,79.37
2019-06-08T05:49:15.391Z,78.49
2019-06-08T05:51:47.852Z,78.98
2019-06-08T05:54:27.446Z,79.01
2019-06-08T05:57:02.778Z,78.81
2019-06-08T05:59:39.764Z,78.32
2019-06-08T06:02:15.030Z,78.58
2019-06-08T06:04:52.207Z,79.73
2019-06-08T06:07:26.511Z,78.84
2019-06-08T06:09:59.213Z,78.83
2019-06-08T06:12:31.794Z,78.83
2019-06-08T06:15:06.198Z,80.10
2019-06-08T06:17:38.424Z,79.39
2019-06-08T06:20:14.696Z,78.49
2019-06-08T06:22:49.505Z,78.61
2019-06-08T06:25:21.960Z,78.25
2019-06-08T06:27:54.480Z,77.80
2019-06-08T06:30:29.557Z,77.12
2019-06-08T06:33:01.545Z,77.09
2019-06-08T06:35:35.601Z,77.63
2019-06-08T06:38:08.746Z,77.75
2019-06-08T06:40:41.899Z,77.78
2019-06-08T06:43:13.927Z,77.15
2019-06-08T06:45:46.332Z,76.69
2019-06-08T06:48:18.308Z,76.06
2019-06-08T06:50:50.461Z,76.09
2019-06-08T06:53:22.392Z,75.39
2019-06-08T06:55:54.310Z,74.95
2019-06-08T06:58:26.357Z,74.28
2019-06-08T07:00:58.365Z,73.54
2019-06-08T07:03:30.346Z,73.67
2019-06-08T07:06:02.347Z,74.46
2019-06-08T07:08:36.365Z,74.41
2019-06-08T07:11:09.647Z,75.15
2019-06-08T07:13:41.636Z,73.81
2019-06-08T07:16:18.449Z,73.08
2019-06-08T07:18:48.210Z,73.49
2019-06-08T07:21:21.242Z,73.00
2019-06-08T07:23:54.540Z,71.71
2019-06-08T07:26:28.850Z,70.88
2019-06-08T07:29:00.917Z,71.07
2019-06-08T07:31:32.962Z,72.02
2019-06-08T07:34:05.091Z,71.71
2019-06-08T07:36:37.072Z,71.86
2019-06-08T07:39:09.581Z,71.61
2019-06-08T07:41:41.591Z,71.32
2019-06-08T07:44:13.557Z,71.35
2019-06-08T07:46:46.954Z,70.65
2019-06-08T07:49:21.329Z,70.89
2019-06-08T07:52:02.463Z,70.68
2019-06-08T07:54:28.352Z,70.24
2019-06-08T07:57:00.505Z,69.74
2019-06-08T07:59:32.568Z,68.82
2019-06-08T08:02:04.528Z,70.28
2019-06-08T08:04:36.501Z,70.21
2019-06-08T08:07:08.542Z,69.87
2019-06-08T08:09:40.482Z,68.90
2019-06-08T08:12:12.704Z,67.96
2019-06-08T08:14:44.744Z,67.39
2019-06-08T08:17:16.733Z,66.92
2019-06-08T08:19:48.975Z,67.26
2019-06-08T08:22:25.934Z,66.77
2019-06-08T08:24:57.927Z,66.25
2019-06-08T08:27:28.494Z,65.11
2019-06-08T08:30:01.839Z,63.00
2019-06-08T08:32:34.353Z,60.61
2019-06-08T08:35:08.785Z,59.74
2019-06-08T08:37:41.172Z,59.58
2019-06-08T08:40:13.304Z,58.20
2019-06-08T08:42:45.442Z,58.57
2019-06-08T08:45:18.321Z,58.07
2019-06-08T08:47:51.161Z,56.24
2019-06-08T08:50:24.344Z,55.33
2019-06-08T08:53:05.284Z,54.96
2019-06-08T08:55:37.981Z,54.48
2019-06-08T08:58:10.066Z,54.59
2019-06-08T09:00:41.992Z,52.68
2019-06-08T09:03:28.530Z,51.58
2019-06-08T09:05:48.298Z,51.32
2019-06-08T09:08:29.753Z,50.78
2019-06-08T09:11:03.868Z,51.08
2019-06-08T09:13:37.697Z,51.37
2019-06-08T09:16:09.884Z,50.88
2019-06-08T09:18:41.937Z,50.24
2019-06-08T09:21:13.967Z,50.52
2019-06-08T09:23:48.431Z,50.37
2019-06-08T09:26:19.733Z,50.27
2019-06-08T09:28:53.142Z,50.48
2019-06-08T09:31:28.071Z,52.10
2019-06-08T09:34:08.677Z,52.05
2019-06-08T09:36:32.936Z,51.11
2019-06-08T09:39:12.313Z,51.33
2019-06-08T09:41:40.698Z,52.15
2019-06-08T09:44:12.786Z,51.69
2019-06-08T09:46:44.839Z,51.10
2019-06-08T09:49:18.857Z,52.17
2019-06-08T09:51:51.183Z,50.99
2019-06-08T09:54:23.263Z,50.62
2019-06-08T09:56:55.776Z,49.82
2019-06-08T09:59:28.514Z,49.64
2019-06-08T10:02:07.421Z,49.21
2019-06-08T10:04:35.203Z,49.15
2019-06-08T10:07:08.905Z,48.27
2019-06-08T10:09:43.337Z,48.27
2019-06-08T10:12:18.038Z,48.72
2019-06-08T10:14:49.843Z,48.61
2019-06-08T10:17:21.945Z,48.33
2019-06-08T10:19:54.657Z,46.29
2019-06-08T10:22:28.270Z,46.78
2019-06-08T10:25:04.150Z,47.59
2019-06-08T10:27:34.165Z,45.20
2019-06-08T10:30:11.095Z,46.30
2019-06-08T10:32:43.126Z,45.71
2019-06-08T10:35:18.513Z,44.42
2019-06-08T10:37:51.183Z,45.57
2019-06-08T10:40:24.360Z,46.06
2019-06-08T10:42:59.798Z,45.56
2019-06-08T10:45:30.088Z,46.11
2019-06-08T10:48:03.228Z,45.94
2019-06-08T10:50:35.625Z,46.54
2019-06-08T10:53:10.532Z,46.76
2019-06-08T10:55:41.185Z,46.51
2019-06-08T10:58:13.179Z,46.67
2019-06-08T11:00:45.309Z,47.97
2019-06-08T11:03:17.505Z,48.54
2019-06-08T11:05:51.332Z,48.53
2019-06-08T11:08:23.047Z,48.46
2019-06-08T11:10:57.495Z,48.83
2019-06-08T11:13:28.828Z,45.83
2019-06-08T11:16:02.471Z,46.81
2019-06-08T11:18:34.391Z,45.60
2019-06-08T11:21:09.932Z,43.71
2019-06-08T11:23:41.656Z,42.95
2019-06-08T11:26:22.620Z,41.19
2019-06-08T11:28:50.827Z,41.17
2019-06-08T11:31:21.199Z,43.50
2019-06-08T11:33:53.227Z,44.66
2019-06-08T11:36:25.174Z,45.34
2019-06-08T11:38:59.201Z,45.97
2019-06-08T11:41:30.724Z,45.42
2019-06-08T11:44:03.868Z,45.81
2019-06-08T11:46:38.406Z,46.82
2019-06-08T11:49:13.454Z,46.72
2019-06-08T11:51:43.818Z,47.30
2019-06-08T11:54:29.487Z,48.41
2019-06-08T11:56:52.230Z,48.49
2019-06-08T11:59:25.658Z,48.73
2019-06-08T12:01:58.625Z,50.05
2019-06-08T12:04:30.660Z,49.14
2019-06-08T12:07:02.583Z,49.79
2019-06-08T12:09:34.608Z,50.45
2019-06-08T12:12:09.216Z,51.75
2019-06-08T12:14:40.572Z,51.51
2019-06-08T12:17:18.870Z,52.08
2019-06-08T12:19:49.533Z,51.99
2019-06-08T12:22:21.923Z,53.00
2019-06-08T12:24:53.986Z,53.49
2019-06-08T12:27:33.142Z,53.30
2019-06-08T12:29:59.536Z,54.51
2019-06-08T12:32:31.628Z,53.30
2019-06-08T12:35:05.110Z,53.30
2019-06-08T12:37:38.684Z,52.99
2019-06-08T12:40:13.284Z,52.76
2019-06-08T12:42:45.526Z,52.31
2019-06-08T12:45:19.916Z,51.98
2019-06-08T12:47:55.064Z,51.24
2019-06-08T12:50:28.815Z,50.95
2019-06-08T12:53:01.008Z,50.26
2019-06-08T12:55:33.000Z,51.11
2019-06-08T12:58:08.131Z,50.86
2019-06-08T13:00:40.342Z,50.21
2019-06-08T13:03:12.938Z,49.79
2019-06-08T13:05:45.116Z,49.85
2019-06-08T13:08:20.055Z,48.40
2019-06-08T13:10:50.664Z,48.11
2019-06-08T13:13:24.496Z,49.74
2019-06-08T13:15:58.035Z,46.96
2019-06-08T13:18:30.257Z,45.20
2019-06-08T13:21:15.567Z,44.49
2019-06-08T13:23:40.808Z,44.08
2019-06-08T13:26:10.892Z,43.89
2019-06-08T13:28:43.281Z,44.44
2019-06-08T13:31:18.250Z,43.77
2019-06-08T13:33:49.203Z,43.31
2019-06-08T13:36:26.093Z,40.16
2019-06-08T13:38:54.825Z,40.60
2019-06-08T13:41:29.646Z,38.08
2019-06-08T13:44:00.319Z,36.37
2019-06-08T13:46:32.431Z,34.94
2019-06-08T13:49:04.478Z,34.46
2019-06-08T13:51:38.432Z,32.38
2019-06-08T13:54:10.774Z,31.87
2019-06-08T13:56:42.892Z,31.85
2019-06-08T13:59:19.217Z,27.75
2019-06-08T14:01:51.238Z,28.34
2019-06-08T14:04:23.834Z,29.13
2019-06-08T14:06:58.121Z,26.58
2019-06-08T14:09:31.832Z,27.91
2019-06-08T14:12:03.854Z,28.29
2019-06-08T14:14:39.690Z,28.25
2019-06-08T14:17:09.407Z,29.11
2019-06-08T14:19:41.364Z,28.36
2019-06-08T14:22:13.376Z,27.48
2019-06-08T14:24:47.788Z,27.35
2019-06-08T14:27:19.360Z,30.47
2019-06-08T14:29:51.479Z,31.07
2019-06-08T14:32:23.876Z,29.24
2019-06-08T14:34:58.246Z,30.80
2019-06-08T14:37:30.558Z,29.79
2019-06-08T14:40:02.700Z,29.65
2019-06-08T14:42:35.401Z,30.90
2019-06-08T14:45:10.873Z,30.20
2019-06-08T14:47:42.454Z,30.03
2019-06-08T14:50:14.820Z,30.56
2019-06-08T14:52:47.926Z,31.57
2019-06-08T14:55:21.745Z,31.41
2019-06-08T14:57:54.376Z,31.09
2019-06-08T15:00:27.527Z,31.13
2019-06-08T15:03:00.286Z,31.13
2019-06-08T15:05:32.805Z,31.81
2019-06-08T15:08:04.873Z,32.03
2019-06-08T15:10:38.474Z,30.57
2019-06-08T15:13:10.705Z,30.32
2019-06-08T15:15:42.753Z,30.17
2019-06-08T15:18:14.576Z,29.10
2019-06-08T15:20:48.101Z,28.81
2019-06-08T15:23:22.868Z,25.09
2019-06-08T15:25:53.937Z,21.70
2019-06-08T15:28:29.283Z,20.17
2019-06-08T15:31:00.071Z,19.49
2019-06-08T15:33:33.629Z,18.85
2019-06-08T15:36:05.760Z,18.07
2019-06-08T15:38:38.152Z,18.65
2019-06-08T15:41:10.223Z,18.37
2019-06-08T15:43:42.190Z,17.09
2019-06-08T15:46:14.253Z,17.02
2019-06-08T15:48:48.514Z,16.73
2019-06-08T15:51:19.982Z,16.55
2019-06-08T15:53:52.005Z,16.25
2019-06-08T15:56:40.620Z,16.27
2019-06-08T15:58:58.799Z,15.99
2019-06-08T16:01:31.557Z,16.32
2019-06-08T16:04:04.244Z,16.16
2019-06-08T16:06:36.291Z,15.98
2019-06-08T16:09:09.719Z,15.82
2019-06-08T16:11:41.676Z,14.79
2019-06-08T16:14:13.554Z,15.43
2019-06-08T16:16:45.701Z,14.87
2019-06-08T16:19:17.634Z,13.34
2019-06-08T16:21:49.560Z,11.83
2019-06-08T16:24:21.570Z,12.57
2019-06-08T16:26:53.816Z,11.75
2019-06-08T16:29:26.794Z,11.59
2019-06-08T16:31:58.860Z,13.61
2019-06-08T16:34:31.364Z,13.49
2019-06-08T16:37:03.442Z,13.49
2019-06-08T16:39:35.367Z,13.03
2019-06-08T16:42:07.328Z,12.57
2019-06-08T16:44:39.364Z,12.68
2019-06-08T16:47:12.387Z,12.51
2019-06-08T16:49:44.267Z,12.89
2019-06-08T16:52:17.280Z,13.31
2019-06-08T16:54:49.402Z,12.37
2019-06-08T16:57:21.376Z,12.32
2019-06-08T16:59:53.330Z,12.13
2019-06-08T17:02:26.538Z,11.40
2019-06-08T17:04:59.609Z,13.24
2019-06-08T17:07:32.151Z,12.87
2019-06-08T17:10:06.567Z,13.26
2019-06-08T17:12:39.120Z,14.11
2019-06-08T17:15:13.255Z,13.83
2019-06-08T17:17:45.269Z,14.32
2019-06-08T17:20:17.489Z,14.35
2019-06-08T17:22:50.455Z,16.52
2019-06-08T17:25:22.394Z,19.70
2019-06-08T17:27:54.497Z,19.60
2019-06-08T17:30:26.390Z,22.36
2019-06-08T17:32:58.485Z,21.59
2019-06-08T17:35:31.397Z,24.25
2019-06-08T17:38:03.551Z,26.27
2019-06-08T17:40:35.860Z,26.68
2019-06-08T17:43:07.934Z,28.09
2019-06-08T17:45:41.114Z,28.05
2019-06-08T17:48:13.243Z,28.76
2019-06-08T17:50:45.204Z,28.52
2019-06-08T17:53:17.089Z,29.33
2019-06-08T17:55:49.178Z,30.18
2019-06-08T17:58:21.727Z,30.66
2019-06-08T18:00:54.007Z,30.66
2019-06-08T18:03:27.920Z,31.55
2019-06-08T18:06:00.028Z,31.93
2019-06-08T18:08:32.024Z,32.63
2019-06-08T18:11:03.972Z,32.67
2019-06-08T18:13:38.998Z,33.11
2019-06-08T18:16:09.580Z,33.98
2019-06-08T18:18:42.291Z,34.33
2019-06-08T18:21:17.565Z,34.83
2019-06-08T18:23:48.981Z,36.58
2019-06-08T18:26:21.152Z,36.39
2019-06-08T18:28:55.066Z,36.30
2019-06-08T18:31:27.639Z,38.90
2019-06-08T18:34:02.102Z,38.86
2019-06-08T18:36:35.625Z,38.08
2019-06-08T18:39:08.205Z,37.47
2019-06-08T18:41:41.183Z,37.99
2019-06-08T18:44:14.063Z,38.37
2019-06-08T18:46:48.084Z,40.85
2019-06-08T18:49:19.653Z,41.96
2019-06-08T18:51:53.761Z,44.45
2019-06-08T18:54:27.853Z,45.07
2019-06-08T18:56:59.226Z,46.77
2019-06-08T18:59:31.202Z,47.51
2019-06-08T19:02:03.284Z,48.07
2019-06-08T19:04:37.433Z,47.55
2019-06-08T19:07:08.967Z,47.99
2019-06-08T19:09:42.623Z,49.42
2019-06-08T19:12:17.188Z,49.36
2019-06-08T19:14:51.974Z,48.26
2019-06-08T19:17:22.454Z,49.06
2019-06-08T19:19:54.366Z,50.88
2019-06-08T19:22:30.062Z,51.08
2019-06-08T19:25:00.214Z,51.98
2019-06-08T19:27:32.478Z,53.27
2019-06-08T19:30:06.226Z,53.61
2019-06-08T19:32:40.394Z,55.48
2019-06-08T19:35:12.301Z,57.11
2019-06-08T19:37:44.209Z,56.81
2019-06-08T19:40:17.645Z,57.18
2019-06-08T19:42:57.178Z,59.33
2019-06-08T19:45:23.806Z,60.31
2019-06-08T19:47:57.799Z,59.58
2019-06-08T19:50:29.566Z,59.61
2019-06-08T19:53:01.553Z,59.59
2019-06-08T19:55:33.910Z,60.07
2019-06-08T19:58:08.557Z,60.85
2019-06-08T20:00:40.604Z,60.15
2019-06-08T20:03:14.132Z,60.07
2019-06-08T20:05:50.122Z,59.51
2019-06-08T20:08:19.988Z,61.04
2019-06-08T20:10:52.186Z,61.52
2019-06-08T20:13:24.250Z,62.20
2019-06-08T20:15:59.603Z,62.35
2019-06-08T20:18:30.261Z,62.11
2019-06-08T20:21:02.246Z,62.18
2019-06-08T20:23:34.552Z,62.24
2019-06-08T20:26:08.385Z,62.50
2019-06-08T20:28:42.053Z,62.72
2019-06-08T20:31:15.229Z,63.97
2019-06-08T20:33:50.235Z,63.14
2019-06-08T20:36:20.891Z,64.20
2019-06-08T20:38:52.984Z,64.55
2019-06-08T20:41:27.597Z,66.19
2019-06-08T20:43:58.728Z,65.12
2019-06-08T20:46:30.667Z,64.81
2019-06-08T20:49:02.551Z,65.95
2019-06-08T20:51:34.487Z,65.61
2019-06-08T20:54:07.950Z,65.98
2019-06-08T20:56:40.076Z,67.29
2019-06-08T20:59:24.266Z,67.50
2019-06-08T21:01:48.353Z,67.77
2019-06-08T21:04:19.162Z,67.87
2019-06-08T21:06:52.822Z,68.22
2019-06-08T21:09:24.837Z,68.64
2019-06-08T21:11:58.749Z,69.02
2019-06-08T21:14:30.483Z,69.82
2019-06-08T21:17:03.041Z,69.27
2019-06-08T21:19:34.923Z,69.78
2019-06-08T21:22:08.204Z,69.85
2019-06-08T21:24:40.444Z,69.68
2019-06-08T21:27:12.335Z,70.89
2019-06-08T21:29:49.059Z,71.46
2019-06-08T21:32:20.976Z,71.28
2019-06-08T21:34:52.659Z,72.22
2019-06-08T21:37:27.902Z,71.24
2019-06-08T21:40:03.757Z,71.34
2019-06-08T21:42:33.855Z,71.62
2019-06-08T21:45:09.752Z,71.69
2019-06-08T21:47:42.159Z,71.66
2019-06-08T21:50:18.641Z,72.58
2019-06-08T21:52:54.698Z,73.13
2019-06-08T21:55:33.570Z,73.38
2019-06-08T21:58:07.865Z,73.59
2019-06-08T22:00:47.054Z,73.61
2019-06-08T22:03:19.004Z,73.37
2019-06-08T22:05:51.754Z,73.49
2019-06-08T22:08:23.683Z,74.88
2019-06-08T22:10:58.962Z,74.23
2019-06-08T22:13:29.500Z,75.16
2019-06-08T22:16:02.246Z,74.98
2019-06-08T22:18:35.095Z,75.05
2019-06-08T22:21:08.080Z,74.73
2019-06-08T22:24:07.995Z,74.54
2019-06-08T22:26:39.461Z,74.91
2019-06-08T22:29:12.417Z,76.17
2019-06-08T22:31:44.275Z,75.55
2019-06-08T22:34:17.471Z,76.24
2019-06-08T22:36:49.701Z,76.74
2019-06-08T22:39:22.945Z,77.11
2019-06-08T22:41:56.077Z,77.25
2019-06-08T22:44:28.532Z,76.51
2019-06-08T22:47:01.968Z,77.52
2019-06-08T22:49:34.027Z,77.47
2019-06-08T22:52:08.210Z,77.04
2019-06-08T22:54:39.494Z,77.34
2019-06-08T22:57:11.392Z,78.01
2019-06-08T22:59:43.344Z,78.65
2019-06-08T23:02:15.284Z,78.29
2019-06-08T23:05:01.332Z,78.17
2019-06-08T23:07:32.920Z,79.13
2019-06-08T23:10:22.833Z,79.03
2019-06-08T23:13:04.373Z,78.86
2019-06-08T23:15:38.055Z,79.31
2019-06-08T23:18:12.954Z,81.25
2019-06-08T23:20:48.082Z,80.82
2019-06-08T23:23:19.967Z,81.13
2019-06-08T23:25:52.150Z,80.75
2019-06-08T23:28:28.275Z,80.87
2019-06-08T23:31:10.707Z,80.83
2019-06-08T23:33:34.802Z,80.72
2019-06-08T23:36:43.481Z,81.07
2019-06-08T23:38:40.713Z,81.44
2019-06-08T23:41:12.815Z,81.48
2019-06-08T23:43:44.780Z,81.53
2019-06-08T23:46:18.142Z,81.96
2019-06-08T23:48:50.170Z,81.72
2019-06-08T23:51:22.233Z,82.04
2019-06-08T23:53:54.115Z,81.76
2019-06-08T23:56:27.746Z,81.95
2019-06-08T23:59:00.359Z,82.02
